sensor_id;sensor_type;location;lat;lon;timestamp;P1;durP1;ratioP1;P2;durP2;ratioP2
76459;SDS011;65299;46.084;18.762;2023-04-24T00:02:17;12.97;;;8.80;;
76459;SDS011;65299;46.084;18.762;2023-04-24T00:05:18;12.85;;;8.43;;
76459;SDS011;65299;46.084;18.762;2023-04-24T00:08:19;18.40;;;9.03;;
76459;SDS011;65299;46.084;18.762;2023-04-24T00:11:19;12.45;;;8.55;;
76459;SDS011;65299;46.084;18.762;2023-04-24T00:14:20;12.73;;;9.23;;
76459;SDS011;65299;46.084;18.762;2023-04-24T00:17:20;17.23;;;10.37;;
76459;SDS011;65299;46.084;18.762;2023-04-24T00:20:21;13.20;;;9.63;;
76459;SDS011;65299;46.084;18.762;2023-04-24T00:23:22;15.53;;;9.00;;
76459;SDS011;65299;46.084;18.762;2023-04-24T00:26:22;15.05;;;8.77;;
76459;SDS011;65299;46.084;18.762;2023-04-24T00:29:23;15.80;;;9.83;;
76459;SDS011;65299;46.084;18.762;2023-04-24T00:32:23;16.53;;;8.90;;
76459;SDS011;65299;46.084;18.762;2023-04-24T00:35:24;16.37;;;8.53;;
76459;SDS011;65299;46.084;18.762;2023-04-24T00:38:24;13.93;;;9.55;;
76459;SDS011;65299;46.084;18.762;2023-04-24T00:41:25;14.70;;;10.03;;
76459;SDS011;65299;46.084;18.762;2023-04-24T00:44:25;16.60;;;10.20;;
76459;SDS011;65299;46.084;18.762;2023-04-24T00:47:26;13.70;;;9.65;;
76459;SDS011;65299;46.084;18.762;2023-04-24T00:50:27;13.93;;;8.87;;
76459;SDS011;65299;46.084;18.762;2023-04-24T00:53:28;15.85;;;9.05;;
76459;SDS011;65299;46.084;18.762;2023-04-24T00:56:28;16.10;;;9.77;;
76459;SDS011;65299;46.084;18.762;2023-04-24T00:59:29;12.82;;;9.18;;
76459;SDS011;65299;46.084;18.762;2023-04-24T01:02:30;16.13;;;10.07;;
76459;SDS011;65299;46.084;18.762;2023-04-24T01:05:31;15.68;;;10.30;;
76459;SDS011;65299;46.084;18.762;2023-04-24T01:08:32;15.40;;;9.93;;
76459;SDS011;65299;46.084;18.762;2023-04-24T01:11:33;17.13;;;9.83;;
76459;SDS011;65299;46.084;18.762;2023-04-24T01:14:34;15.85;;;9.68;;
76459;SDS011;65299;46.084;18.762;2023-04-24T01:17:34;18.40;;;10.47;;
76459;SDS011;65299;46.084;18.762;2023-04-24T01:20:36;18.10;;;11.07;;
76459;SDS011;65299;46.084;18.762;2023-04-24T01:23:39;18.05;;;11.00;;
76459;SDS011;65299;46.084;18.762;2023-04-24T01:26:40;17.00;;;9.87;;
76459;SDS011;65299;46.084;18.762;2023-04-24T01:29:41;12.80;;;9.43;;
76459;SDS011;65299;46.084;18.762;2023-04-24T01:32:41;14.05;;;8.82;;
76459;SDS011;65299;46.084;18.762;2023-04-24T01:35:44;13.38;;;9.30;;
76459;SDS011;65299;46.084;18.762;2023-04-24T01:38:45;15.83;;;9.70;;
76459;SDS011;65299;46.084;18.762;2023-04-24T01:41:45;14.25;;;9.50;;
76459;SDS011;65299;46.084;18.762;2023-04-24T01:44:46;16.73;;;9.90;;
76459;SDS011;65299;46.084;18.762;2023-04-24T01:47:47;14.50;;;9.93;;
76459;SDS011;65299;46.084;18.762;2023-04-24T01:50:48;16.02;;;11.23;;
76459;SDS011;65299;46.084;18.762;2023-04-24T01:53:49;14.27;;;10.00;;
76459;SDS011;65299;46.084;18.762;2023-04-24T01:56:49;14.50;;;10.13;;
76459;SDS011;65299;46.084;18.762;2023-04-24T01:59:50;16.53;;;10.10;;
76459;SDS011;65299;46.084;18.762;2023-04-24T02:02:51;16.80;;;10.20;;
76459;SDS011;65299;46.084;18.762;2023-04-24T02:05:52;17.27;;;10.63;;
76459;SDS011;65299;46.084;18.762;2023-04-24T02:08:52;16.20;;;10.70;;
76459;SDS011;65299;46.084;18.762;2023-04-24T02:11:53;19.13;;;11.07;;
76459;SDS011;65299;46.084;18.762;2023-04-24T02:14:53;16.80;;;10.60;;
76459;SDS011;65299;46.084;18.762;2023-04-24T02:17:54;20.07;;;11.37;;
76459;SDS011;65299;46.084;18.762;2023-04-24T02:20:54;15.77;;;10.50;;
76459;SDS011;65299;46.084;18.762;2023-04-24T02:23:55;17.17;;;11.65;;
76459;SDS011;65299;46.084;18.762;2023-04-24T02:26:55;18.20;;;11.20;;
76459;SDS011;65299;46.084;18.762;2023-04-24T02:29:55;15.90;;;10.73;;
76459;SDS011;65299;46.084;18.762;2023-04-24T02:32:56;15.07;;;10.50;;
76459;SDS011;65299;46.084;18.762;2023-04-24T02:35:56;17.70;;;11.15;;
76459;SDS011;65299;46.084;18.762;2023-04-24T02:38:57;19.27;;;10.57;;
76459;SDS011;65299;46.084;18.762;2023-04-24T02:41:57;16.70;;;10.70;;
76459;SDS011;65299;46.084;18.762;2023-04-24T02:44:58;15.88;;;10.93;;
76459;SDS011;65299;46.084;18.762;2023-04-24T02:47:58;16.87;;;11.10;;
76459;SDS011;65299;46.084;18.762;2023-04-24T02:50:58;15.47;;;11.10;;
76459;SDS011;65299;46.084;18.762;2023-04-24T02:53:59;20.43;;;10.63;;
76459;SDS011;65299;46.084;18.762;2023-04-24T02:56:59;16.73;;;11.38;;
76459;SDS011;65299;46.084;18.762;2023-04-24T03:00:01;19.37;;;11.13;;
76459;SDS011;65299;46.084;18.762;2023-04-24T03:03:01;16.70;;;10.88;;
76459;SDS011;65299;46.084;18.762;2023-04-24T03:06:02;16.83;;;11.77;;
76459;SDS011;65299;46.084;18.762;2023-04-24T03:09:05;19.17;;;12.17;;
76459;SDS011;65299;46.084;18.762;2023-04-24T03:12:06;16.42;;;12.13;;
76459;SDS011;65299;46.084;18.762;2023-04-24T03:15:06;19.40;;;13.03;;
76459;SDS011;65299;46.084;18.762;2023-04-24T03:18:07;17.65;;;11.77;;
76459;SDS011;65299;46.084;18.762;2023-04-24T03:21:08;21.77;;;12.87;;
76459;SDS011;65299;46.084;18.762;2023-04-24T03:24:08;17.13;;;11.77;;
76459;SDS011;65299;46.084;18.762;2023-04-24T03:27:09;18.17;;;12.05;;
76459;SDS011;65299;46.084;18.762;2023-04-24T03:30:10;20.20;;;11.47;;
76459;SDS011;65299;46.084;18.762;2023-04-24T03:33:10;22.15;;;12.13;;
76459;SDS011;65299;46.084;18.762;2023-04-24T03:36:11;16.50;;;11.60;;
76459;SDS011;65299;46.084;18.762;2023-04-24T03:39:11;27.42;;;12.52;;
76459;SDS011;65299;46.084;18.762;2023-04-24T03:42:13;19.63;;;11.43;;
76459;SDS011;65299;46.084;18.762;2023-04-24T03:45:13;18.63;;;12.45;;
76459;SDS011;65299;46.084;18.762;2023-04-24T03:48:14;19.17;;;12.57;;
76459;SDS011;65299;46.084;18.762;2023-04-24T03:51:15;18.27;;;11.60;;
76459;SDS011;65299;46.084;18.762;2023-04-24T03:54:15;21.33;;;12.10;;
76459;SDS011;65299;46.084;18.762;2023-04-24T03:57:15;19.47;;;12.57;;
76459;SDS011;65299;46.084;18.762;2023-04-24T04:00:16;24.03;;;13.40;;
76459;SDS011;65299;46.084;18.762;2023-04-24T04:03:16;21.25;;;13.10;;
76459;SDS011;65299;46.084;18.762;2023-04-24T04:06:17;18.03;;;12.17;;
76459;SDS011;65299;46.084;18.762;2023-04-24T04:09:18;22.45;;;13.65;;
76459;SDS011;65299;46.084;18.762;2023-04-24T04:12:18;21.20;;;12.40;;
76459;SDS011;65299;46.084;18.762;2023-04-24T04:15:19;18.93;;;13.00;;
76459;SDS011;65299;46.084;18.762;2023-04-24T04:18:19;23.27;;;13.18;;
76459;SDS011;65299;46.084;18.762;2023-04-24T04:21:20;20.20;;;12.70;;
76459;SDS011;65299;46.084;18.762;2023-04-24T04:24:20;18.77;;;12.23;;
76459;SDS011;65299;46.084;18.762;2023-04-24T04:27:22;18.60;;;12.88;;
76459;SDS011;65299;46.084;18.762;2023-04-24T04:30:22;23.85;;;13.40;;
76459;SDS011;65299;46.084;18.762;2023-04-24T04:33:23;18.37;;;12.60;;
76459;SDS011;65299;46.084;18.762;2023-04-24T04:36:24;22.10;;;12.65;;
76459;SDS011;65299;46.084;18.762;2023-04-24T04:39:25;24.20;;;13.23;;
76459;SDS011;65299;46.084;18.762;2023-04-24T04:42:28;20.47;;;12.33;;
76459;SDS011;65299;46.084;18.762;2023-04-24T04:45:29;21.55;;;13.30;;
76459;SDS011;65299;46.084;18.762;2023-04-24T04:48:29;21.70;;;13.63;;
76459;SDS011;65299;46.084;18.762;2023-04-24T04:51:31;26.05;;;14.35;;
76459;SDS011;65299;46.084;18.762;2023-04-24T04:54:31;21.07;;;14.17;;
76459;SDS011;65299;46.084;18.762;2023-04-24T04:57:32;20.98;;;13.70;;
76459;SDS011;65299;46.084;18.762;2023-04-24T05:00:32;21.07;;;13.53;;
76459;SDS011;65299;46.084;18.762;2023-04-24T05:03:35;18.95;;;13.93;;
76459;SDS011;65299;46.084;18.762;2023-04-24T05:06:36;25.13;;;14.47;;
76459;SDS011;65299;46.084;18.762;2023-04-24T05:09:37;21.10;;;14.25;;
76459;SDS011;65299;46.084;18.762;2023-04-24T05:12:37;25.83;;;14.37;;
76459;SDS011;65299;46.084;18.762;2023-04-24T05:15:37;21.30;;;14.23;;
76459;SDS011;65299;46.084;18.762;2023-04-24T05:18:38;22.15;;;14.15;;
76459;SDS011;65299;46.084;18.762;2023-04-24T05:21:38;26.00;;;13.93;;
76459;SDS011;65299;46.084;18.762;2023-04-24T05:24:39;18.17;;;13.80;;
76459;SDS011;65299;46.084;18.762;2023-04-24T05:27:39;24.48;;;14.65;;
76459;SDS011;65299;46.084;18.762;2023-04-24T05:30:40;22.70;;;15.30;;
76459;SDS011;65299;46.084;18.762;2023-04-24T05:33:41;24.43;;;15.20;;
76459;SDS011;65299;46.084;18.762;2023-04-24T05:36:41;21.20;;;14.27;;
76459;SDS011;65299;46.084;18.762;2023-04-24T05:39:42;23.75;;;13.93;;
76459;SDS011;65299;46.084;18.762;2023-04-24T05:42:43;22.03;;;14.13;;
76459;SDS011;65299;46.084;18.762;2023-04-24T05:45:43;21.47;;;13.10;;
76459;SDS011;65299;46.084;18.762;2023-04-24T05:48:43;25.50;;;15.17;;
76459;SDS011;65299;46.084;18.762;2023-04-24T05:51:44;21.25;;;14.32;;
76459;SDS011;65299;46.084;18.762;2023-04-24T05:54:44;24.00;;;14.60;;
76459;SDS011;65299;46.084;18.762;2023-04-24T05:57:45;22.23;;;14.30;;
76459;SDS011;65299;46.084;18.762;2023-04-24T06:00:46;24.13;;;14.02;;
76459;SDS011;65299;46.084;18.762;2023-04-24T06:03:46;22.23;;;14.33;;
76459;SDS011;65299;46.084;18.762;2023-04-24T06:06:47;23.83;;;14.88;;
76459;SDS011;65299;46.084;18.762;2023-04-24T06:09:50;24.40;;;15.33;;
76459;SDS011;65299;46.084;18.762;2023-04-24T06:12:51;23.52;;;16.05;;
76459;SDS011;65299;46.084;18.762;2023-04-24T06:15:52;26.37;;;15.67;;
76459;SDS011;65299;46.084;18.762;2023-04-24T06:18:52;24.08;;;15.85;;
76459;SDS011;65299;46.084;18.762;2023-04-24T06:21:53;26.60;;;16.63;;
76459;SDS011;65299;46.084;18.762;2023-04-24T06:24:53;26.77;;;18.23;;
76459;SDS011;65299;46.084;18.762;2023-04-24T06:27:54;31.13;;;19.50;;
76459;SDS011;65299;46.084;18.762;2023-04-24T06:30:55;28.40;;;18.20;;
76459;SDS011;65299;46.084;18.762;2023-04-24T06:33:56;29.13;;;18.37;;
76459;SDS011;65299;46.084;18.762;2023-04-24T06:36:56;28.80;;;16.90;;
76459;SDS011;65299;46.084;18.762;2023-04-24T06:39:56;25.27;;;16.73;;
76459;SDS011;65299;46.084;18.762;2023-04-24T06:42:57;27.20;;;17.38;;
76459;SDS011;65299;46.084;18.762;2023-04-24T06:46:00;27.90;;;17.23;;
76459;SDS011;65299;46.084;18.762;2023-04-24T06:49:00;29.25;;;16.90;;
76459;SDS011;65299;46.084;18.762;2023-04-24T06:52:00;25.07;;;16.93;;
76459;SDS011;65299;46.084;18.762;2023-04-24T06:55:02;23.80;;;15.23;;
76459;SDS011;65299;46.084;18.762;2023-04-24T06:58:03;23.20;;;15.57;;
76459;SDS011;65299;46.084;18.762;2023-04-24T07:01:03;34.00;;;16.70;;
76459;SDS011;65299;46.084;18.762;2023-04-24T07:04:04;27.73;;;16.13;;
76459;SDS011;65299;46.084;18.762;2023-04-24T07:07:04;26.02;;;15.75;;
76459;SDS011;65299;46.084;18.762;2023-04-24T07:10:06;23.07;;;15.53;;
76459;SDS011;65299;46.084;18.762;2023-04-24T07:13:08;22.23;;;15.13;;
76459;SDS011;65299;46.084;18.762;2023-04-24T07:16:09;26.30;;;15.45;;
76459;SDS011;65299;46.084;18.762;2023-04-24T07:19:10;23.90;;;15.87;;
76459;SDS011;65299;46.084;18.762;2023-04-24T07:22:10;22.02;;;14.68;;
76459;SDS011;65299;46.084;18.762;2023-04-24T07:25:16;23.55;;;14.57;;
76459;SDS011;65299;46.084;18.762;2023-04-24T07:28:17;23.73;;;14.33;;
76459;SDS011;65299;46.084;18.762;2023-04-24T07:31:17;17.38;;;13.10;;
76459;SDS011;65299;46.084;18.762;2023-04-24T07:34:18;19.03;;;13.80;;
76459;SDS011;65299;46.084;18.762;2023-04-24T07:37:18;21.93;;;13.70;;
76459;SDS011;65299;46.084;18.762;2023-04-24T07:40:19;21.37;;;13.77;;
76459;SDS011;65299;46.084;18.762;2023-04-24T07:43:20;24.67;;;14.33;;
76459;SDS011;65299;46.084;18.762;2023-04-24T07:46:21;24.27;;;13.88;;
76459;SDS011;65299;46.084;18.762;2023-04-24T07:49:23;21.65;;;12.43;;
76459;SDS011;65299;46.084;18.762;2023-04-24T07:52:23;23.20;;;13.97;;
76459;SDS011;65299;46.084;18.762;2023-04-24T07:55:24;20.45;;;14.40;;
76459;SDS011;65299;46.084;18.762;2023-04-24T07:58:25;19.03;;;13.93;;
76459;SDS011;65299;46.084;18.762;2023-04-24T08:01:25;16.40;;;12.43;;
76459;SDS011;65299;46.084;18.762;2023-04-24T08:04:25;22.60;;;13.50;;
76459;SDS011;65299;46.084;18.762;2023-04-24T08:07:26;19.67;;;13.23;;
76459;SDS011;65299;46.084;18.762;2023-04-24T08:10:26;15.97;;;9.93;;
76459;SDS011;65299;46.084;18.762;2023-04-24T08:13:27;10.07;;;7.90;;
76459;SDS011;65299;46.084;18.762;2023-04-24T08:16:27;10.45;;;6.32;;
76459;SDS011;65299;46.084;18.762;2023-04-24T08:19:27;7.33;;;4.93;;
76459;SDS011;65299;46.084;18.762;2023-04-24T08:22:28;6.23;;;3.90;;
76459;SDS011;65299;46.084;18.762;2023-04-24T08:25:28;3.93;;;2.93;;
76459;SDS011;65299;46.084;18.762;2023-04-24T08:28:29;10.17;;;3.00;;
76459;SDS011;65299;46.084;18.762;2023-04-24T08:31:29;3.87;;;2.13;;
76459;SDS011;65299;46.084;18.762;2023-04-24T08:34:30;5.83;;;2.80;;
76459;SDS011;65299;46.084;18.762;2023-04-24T08:37:30;3.57;;;2.77;;
76459;SDS011;65299;46.084;18.762;2023-04-24T08:40:31;4.87;;;2.67;;
76459;SDS011;65299;46.084;18.762;2023-04-24T08:43:34;4.43;;;2.50;;
76459;SDS011;65299;46.084;18.762;2023-04-24T08:46:36;5.97;;;2.80;;
76459;SDS011;65299;46.084;18.762;2023-04-24T08:49:37;3.97;;;2.50;;
76459;SDS011;65299;46.084;18.762;2023-04-24T08:52:39;4.40;;;2.83;;
76459;SDS011;65299;46.084;18.762;2023-04-24T08:55:39;6.15;;;3.13;;
76459;SDS011;65299;46.084;18.762;2023-04-24T08:58:41;5.15;;;3.58;;
76459;SDS011;65299;46.084;18.762;2023-04-24T09:01:43;4.07;;;3.30;;
76459;SDS011;65299;46.084;18.762;2023-04-24T09:08:43;6.32;;;3.65;;
76459;SDS011;65299;46.084;18.762;2023-04-24T09:11:46;6.82;;;4.70;;
76459;SDS011;65299;46.084;18.762;2023-04-24T09:14:47;30.80;;;11.18;;
76459;SDS011;65299;46.084;18.762;2023-04-24T09:17:48;14.10;;;6.47;;
76459;SDS011;65299;46.084;18.762;2023-04-24T09:24:05;6.00;;;4.00;;
76459;SDS011;65299;46.084;18.762;2023-04-24T09:27:07;6.78;;;3.72;;
76459;SDS011;65299;46.084;18.762;2023-04-24T09:30:11;4.78;;;3.25;;
76459;SDS011;65299;46.084;18.762;2023-04-24T09:33:15;7.32;;;3.72;;
76459;SDS011;65299;46.084;18.762;2023-04-24T09:36:17;4.90;;;3.47;;
76459;SDS011;65299;46.084;18.762;2023-04-24T09:39:17;7.32;;;4.00;;
76459;SDS011;65299;46.084;18.762;2023-04-24T09:42:20;4.82;;;3.35;;
76459;SDS011;65299;46.084;18.762;2023-04-24T09:45:22;6.72;;;3.50;;
76459;SDS011;65299;46.084;18.762;2023-04-24T09:48:34;5.60;;;3.33;;
76459;SDS011;65299;46.084;18.762;2023-04-24T09:51:36;5.93;;;3.53;;
76459;SDS011;65299;46.084;18.762;2023-04-24T09:54:38;5.68;;;3.42;;
76459;SDS011;65299;46.084;18.762;2023-04-24T09:57:47;5.57;;;3.30;;
76459;SDS011;65299;46.084;18.762;2023-04-24T10:00:53;5.95;;;3.20;;
76459;SDS011;65299;46.084;18.762;2023-04-24T10:03:53;5.93;;;3.65;;
76459;SDS011;65299;46.084;18.762;2023-04-24T10:06:55;5.37;;;3.50;;
76459;SDS011;65299;46.084;18.762;2023-04-24T10:09:56;6.10;;;3.80;;
76459;SDS011;65299;46.084;18.762;2023-04-24T10:12:57;6.50;;;4.10;;
76459;SDS011;65299;46.084;18.762;2023-04-24T10:15:59;6.70;;;4.07;;
76459;SDS011;65299;46.084;18.762;2023-04-24T10:19:01;5.80;;;3.83;;
76459;SDS011;65299;46.084;18.762;2023-04-24T10:22:03;8.05;;;4.40;;
76459;SDS011;65299;46.084;18.762;2023-04-24T10:25:04;5.93;;;3.65;;
76459;SDS011;65299;46.084;18.762;2023-04-24T10:28:06;4.97;;;3.57;;
76459;SDS011;65299;46.084;18.762;2023-04-24T10:31:07;7.13;;;3.90;;
76459;SDS011;65299;46.084;18.762;2023-04-24T10:34:09;6.90;;;4.00;;
76459;SDS011;65299;46.084;18.762;2023-04-24T10:37:10;5.90;;;4.17;;
76459;SDS011;65299;46.084;18.762;2023-04-24T10:40:11;6.95;;;4.20;;
76459;SDS011;65299;46.084;18.762;2023-04-24T10:43:16;7.20;;;4.17;;
76459;SDS011;65299;46.084;18.762;2023-04-24T10:46:21;7.13;;;4.40;;
76459;SDS011;65299;46.084;18.762;2023-04-24T10:49:28;6.90;;;4.43;;
76459;SDS011;65299;46.084;18.762;2023-04-24T10:52:46;5.53;;;4.22;;
76459;SDS011;65299;46.084;18.762;2023-04-24T10:58:56;5.27;;;2.60;;
76459;SDS011;65299;46.084;18.762;2023-04-24T11:01:58;4.07;;;2.17;;
76459;SDS011;65299;46.084;18.762;2023-04-24T11:04:58;5.25;;;2.40;;
76459;SDS011;65299;46.084;18.762;2023-04-24T11:08:13;4.60;;;2.47;;
76459;SDS011;65299;46.084;18.762;2023-04-24T11:11:16;4.28;;;2.38;;
76459;SDS011;65299;46.084;18.762;2023-04-24T11:14:18;4.32;;;2.47;;
76459;SDS011;65299;46.084;18.762;2023-04-24T11:20:38;3.88;;;2.40;;
76459;SDS011;65299;46.084;18.762;2023-04-24T11:23:42;5.38;;;2.60;;
76459;SDS011;65299;46.084;18.762;2023-04-24T11:26:42;4.87;;;2.80;;
76459;SDS011;65299;46.084;18.762;2023-04-24T11:32:50;5.07;;;2.50;;
76459;SDS011;65299;46.084;18.762;2023-04-24T11:35:51;4.75;;;2.70;;
76459;SDS011;65299;46.084;18.762;2023-04-24T11:38:51;5.43;;;3.03;;
76459;SDS011;65299;46.084;18.762;2023-04-24T11:41:52;6.63;;;3.07;;
76459;SDS011;65299;46.084;18.762;2023-04-24T11:44:53;9.15;;;3.38;;
76459;SDS011;65299;46.084;18.762;2023-04-24T11:47:55;4.17;;;3.13;;
76459;SDS011;65299;46.084;18.762;2023-04-24T11:50:56;4.32;;;3.08;;
76459;SDS011;65299;46.084;18.762;2023-04-24T11:53:56;8.67;;;4.23;;
76459;SDS011;65299;46.084;18.762;2023-04-24T11:56:57;4.50;;;3.63;;
76459;SDS011;65299;46.084;18.762;2023-04-24T11:59:57;5.25;;;3.28;;
76459;SDS011;65299;46.084;18.762;2023-04-24T12:03:31;4.37;;;3.00;;
76459;SDS011;65299;46.084;18.762;2023-04-24T12:06:25;5.63;;;3.13;;
76459;SDS011;65299;46.084;18.762;2023-04-24T12:09:25;11.73;;;5.70;;
76459;SDS011;65299;46.084;18.762;2023-04-24T12:12:26;7.30;;;3.80;;
76459;SDS011;65299;46.084;18.762;2023-04-24T12:15:27;6.47;;;3.63;;
76459;SDS011;65299;46.084;18.762;2023-04-24T12:18:28;5.65;;;3.25;;
76459;SDS011;65299;46.084;18.762;2023-04-24T12:21:28;6.43;;;2.70;;
76459;SDS011;65299;46.084;18.762;2023-04-24T12:24:31;7.10;;;3.38;;
76459;SDS011;65299;46.084;18.762;2023-04-24T12:27:32;7.57;;;3.07;;
76459;SDS011;65299;46.084;18.762;2023-04-24T12:30:34;3.88;;;2.50;;
76459;SDS011;65299;46.084;18.762;2023-04-24T12:33:39;5.53;;;2.80;;
76459;SDS011;65299;46.084;18.762;2023-04-24T12:36:40;6.43;;;3.73;;
76459;SDS011;65299;46.084;18.762;2023-04-24T12:39:44;4.97;;;3.27;;
76459;SDS011;65299;46.084;18.762;2023-04-24T12:42:58;5.72;;;3.47;;
76459;SDS011;65299;46.084;18.762;2023-04-24T12:45:59;8.63;;;4.03;;
76459;SDS011;65299;46.084;18.762;2023-04-24T12:48:59;7.03;;;4.40;;
76459;SDS011;65299;46.084;18.762;2023-04-24T12:51:59;4.77;;;3.50;;
76459;SDS011;65299;46.084;18.762;2023-04-24T12:55:00;5.43;;;3.60;;
76459;SDS011;65299;46.084;18.762;2023-04-24T12:58:02;5.32;;;3.10;;
76459;SDS011;65299;46.084;18.762;2023-04-24T13:01:03;4.22;;;2.90;;
76459;SDS011;65299;46.084;18.762;2023-04-24T13:04:03;4.00;;;2.83;;
76459;SDS011;65299;46.084;18.762;2023-04-24T13:07:05;8.98;;;4.50;;
76459;SDS011;65299;46.084;18.762;2023-04-24T13:10:06;4.60;;;3.10;;
76459;SDS011;65299;46.084;18.762;2023-04-24T13:13:07;7.57;;;4.38;;
76459;SDS011;65299;46.084;18.762;2023-04-24T13:16:07;7.82;;;4.30;;
76459;SDS011;65299;46.084;18.762;2023-04-24T13:19:08;12.43;;;5.53;;
76459;SDS011;65299;46.084;18.762;2023-04-24T13:22:09;7.57;;;3.30;;
76459;SDS011;65299;46.084;18.762;2023-04-24T13:25:10;5.50;;;3.85;;
76459;SDS011;65299;46.084;18.762;2023-04-24T13:28:11;6.47;;;4.27;;
76459;SDS011;65299;46.084;18.762;2023-04-24T13:31:11;7.90;;;4.35;;
76459;SDS011;65299;46.084;18.762;2023-04-24T13:34:12;8.93;;;5.73;;
76459;SDS011;65299;46.084;18.762;2023-04-24T13:37:13;5.90;;;4.00;;
76459;SDS011;65299;46.084;18.762;2023-04-24T13:40:13;7.60;;;3.90;;
76459;SDS011;65299;46.084;18.762;2023-04-24T13:43:14;6.37;;;4.27;;
76459;SDS011;65299;46.084;18.762;2023-04-24T13:46:15;7.63;;;4.10;;
76459;SDS011;65299;46.084;18.762;2023-04-24T13:49:16;7.20;;;4.80;;
76459;SDS011;65299;46.084;18.762;2023-04-24T13:52:17;6.50;;;4.65;;
76459;SDS011;65299;46.084;18.762;2023-04-24T13:55:17;5.90;;;4.00;;
76459;SDS011;65299;46.084;18.762;2023-04-24T13:58:18;4.70;;;3.57;;
76459;SDS011;65299;46.084;18.762;2023-04-24T14:01:18;6.17;;;3.77;;
76459;SDS011;65299;46.084;18.762;2023-04-24T14:04:18;5.95;;;4.25;;
76459;SDS011;65299;46.084;18.762;2023-04-24T14:07:19;6.97;;;5.10;;
76459;SDS011;65299;46.084;18.762;2023-04-24T14:10:19;8.37;;;6.53;;
76459;SDS011;65299;46.084;18.762;2023-04-24T14:13:20;8.27;;;5.10;;
76459;SDS011;65299;46.084;18.762;2023-04-24T14:16:20;7.57;;;4.53;;
76459;SDS011;65299;46.084;18.762;2023-04-24T14:19:21;5.10;;;3.70;;
76459;SDS011;65299;46.084;18.762;2023-04-24T14:22:21;10.05;;;6.22;;
76459;SDS011;65299;46.084;18.762;2023-04-24T14:25:22;9.70;;;4.80;;
76459;SDS011;65299;46.084;18.762;2023-04-24T14:28:22;11.10;;;5.60;;
76459;SDS011;65299;46.084;18.762;2023-04-24T14:31:24;8.57;;;5.38;;
76459;SDS011;65299;46.084;18.762;2023-04-24T14:34:24;7.13;;;4.07;;
76459;SDS011;65299;46.084;18.762;2023-04-24T14:37:25;6.97;;;4.35;;
76459;SDS011;65299;46.084;18.762;2023-04-24T14:40:25;5.67;;;3.90;;
76459;SDS011;65299;46.084;18.762;2023-04-24T14:43:25;6.90;;;4.03;;
76459;SDS011;65299;46.084;18.762;2023-04-24T14:46:26;9.27;;;4.43;;
76459;SDS011;65299;46.084;18.762;2023-04-24T14:49:26;6.60;;;4.33;;
76459;SDS011;65299;46.084;18.762;2023-04-24T14:52:27;7.07;;;4.60;;
76459;SDS011;65299;46.084;18.762;2023-04-24T14:55:27;6.97;;;5.57;;
76459;SDS011;65299;46.084;18.762;2023-04-24T14:58:28;7.03;;;5.93;;
76459;SDS011;65299;46.084;18.762;2023-04-24T15:01:29;7.03;;;4.67;;
76459;SDS011;65299;46.084;18.762;2023-04-24T15:04:29;7.10;;;4.88;;
76459;SDS011;65299;46.084;18.762;2023-04-24T15:07:31;8.83;;;4.30;;
76459;SDS011;65299;46.084;18.762;2023-04-24T15:10:31;5.63;;;4.05;;
76459;SDS011;65299;46.084;18.762;2023-04-24T15:13:32;5.87;;;3.90;;
76459;SDS011;65299;46.084;18.762;2023-04-24T15:16:32;8.13;;;4.40;;
76459;SDS011;65299;46.084;18.762;2023-04-24T15:19:33;6.43;;;3.78;;
76459;SDS011;65299;46.084;18.762;2023-04-24T15:22:33;6.10;;;4.40;;
76459;SDS011;65299;46.084;18.762;2023-04-24T15:25:34;6.97;;;3.85;;
76459;SDS011;65299;46.084;18.762;2023-04-24T15:28:34;7.10;;;4.43;;
76459;SDS011;65299;46.084;18.762;2023-04-24T15:31:38;4.95;;;3.70;;
76459;SDS011;65299;46.084;18.762;2023-04-24T15:34:40;5.20;;;3.93;;
76459;SDS011;65299;46.084;18.762;2023-04-24T15:37:44;7.90;;;4.65;;
76459;SDS011;65299;46.084;18.762;2023-04-24T15:40:45;11.80;;;6.53;;
76459;SDS011;65299;46.084;18.762;2023-04-24T15:43:45;15.20;;;7.60;;
76459;SDS011;65299;46.084;18.762;2023-04-24T15:46:46;10.77;;;6.73;;
76459;SDS011;65299;46.084;18.762;2023-04-24T15:49:47;11.48;;;7.65;;
76459;SDS011;65299;46.084;18.762;2023-04-24T15:52:47;9.00;;;6.30;;
76459;SDS011;65299;46.084;18.762;2023-04-24T15:55:51;9.63;;;5.83;;
76459;SDS011;65299;46.084;18.762;2023-04-24T15:58:52;7.57;;;5.28;;
76459;SDS011;65299;46.084;18.762;2023-04-24T16:01:52;7.50;;;5.47;;
76459;SDS011;65299;46.084;18.762;2023-04-24T16:04:54;8.60;;;6.18;;
76459;SDS011;65299;46.084;18.762;2023-04-24T16:07:55;7.63;;;5.23;;
76459;SDS011;65299;46.084;18.762;2023-04-24T16:10:56;7.25;;;4.68;;
76459;SDS011;65299;46.084;18.762;2023-04-24T16:13:56;6.40;;;4.60;;
76459;SDS011;65299;46.084;18.762;2023-04-24T16:16:57;9.48;;;5.07;;
76459;SDS011;65299;46.084;18.762;2023-04-24T16:19:57;7.30;;;3.77;;
76459;SDS011;65299;46.084;18.762;2023-04-24T16:22:57;6.80;;;4.10;;
76459;SDS011;65299;46.084;18.762;2023-04-24T16:25:58;5.23;;;3.60;;
76459;SDS011;65299;46.084;18.762;2023-04-24T16:28:58;6.13;;;4.60;;
76459;SDS011;65299;46.084;18.762;2023-04-24T16:31:59;8.00;;;5.10;;
76459;SDS011;65299;46.084;18.762;2023-04-24T16:34:59;10.47;;;5.80;;
76459;SDS011;65299;46.084;18.762;2023-04-24T16:37:59;8.03;;;5.20;;
76459;SDS011;65299;46.084;18.762;2023-04-24T16:41:01;6.95;;;5.10;;
76459;SDS011;65299;46.084;18.762;2023-04-24T16:44:01;8.57;;;4.73;;
76459;SDS011;65299;46.084;18.762;2023-04-24T16:47:02;7.93;;;5.47;;
76459;SDS011;65299;46.084;18.762;2023-04-24T16:50:02;9.40;;;5.40;;
76459;SDS011;65299;46.084;18.762;2023-04-24T16:53:03;10.10;;;6.13;;
76459;SDS011;65299;46.084;18.762;2023-04-24T16:56:04;10.50;;;6.32;;
76459;SDS011;65299;46.084;18.762;2023-04-24T16:59:04;11.63;;;6.53;;
76459;SDS011;65299;46.084;18.762;2023-04-24T17:02:06;14.93;;;6.30;;
76459;SDS011;65299;46.084;18.762;2023-04-24T17:05:08;18.05;;;8.32;;
76459;SDS011;65299;46.084;18.762;2023-04-24T17:08:08;15.82;;;8.25;;
76459;SDS011;65299;46.084;18.762;2023-04-24T17:11:09;29.47;;;13.10;;
76459;SDS011;65299;46.084;18.762;2023-04-24T17:14:09;40.50;;;17.10;;
76459;SDS011;65299;46.084;18.762;2023-04-24T17:17:10;31.37;;;15.00;;
76459;SDS011;65299;46.084;18.762;2023-04-24T17:20:11;34.13;;;15.10;;
76459;SDS011;65299;46.084;18.762;2023-04-24T17:23:12;15.85;;;9.27;;
76459;SDS011;65299;46.084;18.762;2023-04-24T17:26:12;18.80;;;9.53;;
76459;SDS011;65299;46.084;18.762;2023-04-24T17:29:13;16.70;;;9.43;;
76459;SDS011;65299;46.084;18.762;2023-04-24T17:32:13;16.27;;;9.30;;
76459;SDS011;65299;46.084;18.762;2023-04-24T17:35:14;11.90;;;7.50;;
76459;SDS011;65299;46.084;18.762;2023-04-24T17:38:14;48.10;;;18.07;;
76459;SDS011;65299;46.084;18.762;2023-04-24T17:41:15;35.20;;;14.82;;
76459;SDS011;65299;46.084;18.762;2023-04-24T17:44:15;22.00;;;10.10;;
76459;SDS011;65299;46.084;18.762;2023-04-24T17:47:16;15.50;;;8.47;;
76459;SDS011;65299;46.084;18.762;2023-04-24T17:50:19;12.52;;;7.45;;
76459;SDS011;65299;46.084;18.762;2023-04-24T17:53:19;23.73;;;11.33;;
76459;SDS011;65299;46.084;18.762;2023-04-24T17:56:20;18.95;;;9.63;;